Time;durP1;ratioP1;P1;durP2;ratioP2;P2;SDS_P1;SDS_P2;PMS_P1;PMS_P2;Temp;Humidity;BMP_temperature;BMP_pressure;BME280_temperature;BME280_humidity;BME280_pressure;Samples;Min_cycle;Max_cycle;Signal;HPM_P1;HPM_P2
2022/06/03 00:01:08;;;;;;;3.40;2.67;;;;;;;;;;4969497;28;20230;-53
2022/06/03 00:03:44;;;;;;;3.80;3.00;;;;;;;;;;4972646;28;20206;-55
2022/06/03 00:06:16;;;;;;;3.20;2.90;;;;;;;;;;4972384;28;20202;-54
2022/06/03 00:08:54;;;;;;;3.20;3.00;;;;;;;;;;4972323;28;20249;-52
2022/06/03 00:11:25;;;;;;;3.03;2.80;;;;;;;;;;4972199;28;20678;-53
2022/06/03 00:14:00;;;;;;;2.83;2.63;;;;;;;;;;4972431;28;20195;-52
2022/06/03 00:16:32;;;;;;;3.47;2.70;;;;;;;;;;4972030;28;20212;-52
2022/06/03 00:19:11;;;;;;;3.70;2.90;;;;;;;;;;4972325;28;20206;-53
2022/06/03 00:21:51;;;;;;;3.87;2.83;;;;;;;;;;4972479;28;20230;-53
2022/06/03 00:24:22;;;;;;;3.37;2.97;;;;;;;;;;4976312;28;20324;-54
2022/06/03 00:26:53;;;;;;;3.57;3.20;;;;;;;;;;4976549;28;20223;-54
2022/06/03 00:29:38;;;;;;;3.93;2.80;;;;;;;;;;4975424;28;20369;-54
2022/06/03 00:32:11;;;;;;;3.13;2.80;;;;;;;;;;4974929;28;20269;-54
2022/06/03 00:34:50;;;;;;;3.73;2.90;;;;;;;;;;4974891;28;20206;-54
2022/06/03 00:37:23;;;;;;;5.00;3.13;;;;;;;;;;4974689;28;20599;-54
2022/06/03 00:39:58;;;;;;;3.50;3.20;;;;;;;;;;4975066;28;20564;-54
2022/06/03 00:42:29;;;;;;;3.57;3.27;;;;;;;;;;4974762;28;20202;-53
2022/06/03 00:45:04;;;;;;;3.27;2.97;;;;;;;;;;4974828;28;20210;-53
2022/06/03 00:47:40;;;;;;;5.03;3.23;;;;;;;;;;4974582;28;20567;-54
2022/06/03 00:50:12;;;;;;;3.40;3.07;;;;;;;;;;4974456;28;20222;-54
2022/06/03 00:52:54;;;;;;;4.47;3.10;;;;;;;;;;4974372;28;20211;-54
2022/06/03 00:55:39;;;;;;;4.33;3.27;;;;;;;;;;4974615;28;20206;-54
2022/06/03 00:58:29;;;;;;;3.53;3.20;;;;;;;;;;4974107;28;20259;-54
2022/06/03 01:00:58;;;;;;;3.37;3.07;;;;;;;;;;4974398;28;20203;-54
2022/06/03 01:03:32;;;;;;;3.53;3.23;;;;;;;;;;4974162;28;20569;-54
2022/06/03 01:06:07;;;;;;;3.67;3.37;;;;;;;;;;4974105;28;20206;-54
2022/06/03 01:08:40;;;;;;;3.33;3.13;;;;;;;;;;4974120;28;20257;-52
2022/06/03 01:11:15;;;;;;;3.80;3.40;;;;;;;;;;4974371;28;20211;-55
2022/06/03 01:13:48;;;;;;;4.50;3.33;;;;;;;;;;4974148;28;20206;-53
2022/06/03 01:16:23;;;;;;;4.20;3.80;;;;;;;;;;4974001;28;20207;-53
2022/06/03 01:18:57;;;;;;;4.10;3.20;;;;;;;;;;4974420;28;20206;-54
2022/06/03 01:21:30;;;;;;;3.60;3.30;;;;;;;;;;4974063;28;20398;-53
2022/06/03 01:24:08;;;;;;;4.23;3.67;;;;;;;;;;4974215;28;20203;-54
2022/06/03 01:26:45;;;;;;;4.20;3.67;;;;;;;;;;4974000;28;20303;-54
2022/06/03 01:29:25;;;;;;;4.40;4.00;;;;;;;;;;4939620;28;1010980;-54
2022/06/03 01:32:10;;;;;;;3.97;3.67;;;;;;;;;;4974727;28;20577;-54
2022/06/03 01:34:41;;;;;;;9.43;3.90;;;;;;;;;;4974451;28;20207;-54
2022/06/03 01:37:11;;;;;;;4.17;3.83;;;;;;;;;;4974753;28;20270;-54
2022/06/03 01:39:58;;;;;;;4.43;4.00;;;;;;;;;;4974953;28;20685;-54
2022/06/03 01:42:33;;;;;;;4.47;3.97;;;;;;;;;;4968613;28;20262;-54
2022/06/03 01:45:09;;;;;;;4.57;3.70;;;;;;;;;;4975059;28;20206;-54
2022/06/03 01:47:58;;;;;;;4.33;3.80;;;;;;;;;;4974785;28;20556;-53
2022/06/03 01:50:33;;;;;;;6.00;4.43;;;;;;;;;;4974800;28;20207;-54
2022/06/03 01:53:12;;;;;;;4.13;3.80;;;;;;;;;;4974779;28;20190;-55
2022/06/03 01:55:56;;;;;;;7.17;4.03;;;;;;;;;;4974755;28;20202;-54
2022/06/03 01:58:40;;;;;;;6.50;4.07;;;;;;;;;;4974451;28;20257;-54
2022/06/03 02:01:14;;;;;;;5.70;3.87;;;;;;;;;;4974783;28;20210;-53
2022/06/03 02:03:50;;;;;;;4.27;3.87;;;;;;;;;;4974641;28;20207;-54
2022/06/03 02:06:43;;;;;;;3.67;3.37;;;;;;;;;;4974484;28;20198;-54
2022/06/03 02:09:22;;;;;;;4.77;3.70;;;;;;;;;;4974241;28;20191;-54
2022/06/03 02:11:52;;;;;;;4.40;3.60;;;;;;;;;;4974480;28;20202;-54
2022/06/03 02:14:29;;;;;;;4.50;4.10;;;;;;;;;;4974302;28;20219;-54
2022/06/03 02:17:24;;;;;;;4.70;4.30;;;;;;;;;;4974294;28;20693;-54
2022/06/03 02:20:09;;;;;;;5.83;4.40;;;;;;;;;;4974494;28;20207;-54
2022/06/03 02:23:03;;;;;;;6.37;4.03;;;;;;;;;;4974160;28;20222;-54
2022/06/03 02:25:45;;;;;;;4.90;4.40;;;;;;;;;;4974112;28;20249;-54
2022/06/03 02:28:19;;;;;;;4.87;4.30;;;;;;;;;;4973944;28;20237;-52
2022/06/03 02:31:05;;;;;;;5.47;3.93;;;;;;;;;;4974011;28;20199;-54
2022/06/03 02:33:47;;;;;;;4.70;4.27;;;;;;;;;;4974188;28;20407;-53
2022/06/03 02:36:34;;;;;;;4.40;4.00;;;;;;;;;;4974011;28;20293;-54
2022/06/03 02:39:06;;;;;;;4.80;4.40;;;;;;;;;;4974240;28;20677;-54
2022/06/03 02:41:45;;;;;;;5.70;4.37;;;;;;;;;;4973771;28;20203;-54
2022/06/03 02:44:31;;;;;;;5.77;4.60;;;;;;;;;;4973566;28;20203;-54
2022/06/03 02:47:19;;;;;;;5.17;4.67;;;;;;;;;;4967543;28;20202;-54
2022/06/03 02:49:50;;;;;;;4.67;4.27;;;;;;;;;;4973321;28;20206;-53
2022/06/03 02:52:28;;;;;;;4.70;4.23;;;;;;;;;;4973452;28;20210;-54
2022/06/03 02:55:07;;;;;;;5.03;4.47;;;;;;;;;;4973610;28;20569;-54
2022/06/03 02:57:41;;;;;;;5.17;4.77;;;;;;;;;;4973521;28;20226;-54
2022/06/03 03:00:15;;;;;;;5.30;4.80;;;;;;;;;;4973565;28;20210;-54
2022/06/03 03:02:46;;;;;;;5.20;4.80;;;;;;;;;;4973302;28;20412;-54
2022/06/03 03:05:19;;;;;;;7.20;5.37;;;;;;;;;;4973322;28;20563;-54
2022/06/03 03:08:03;;;;;;;5.00;4.60;;;;;;;;;;4973171;28;20255;-54
2022/06/03 03:10:47;;;;;;;4.97;4.50;;;;;;;;;;4934367;28;20273;-54
2022/06/03 03:13:24;;;;;;;5.47;4.97;;;;;;;;;;4973192;28;20202;-54
2022/06/03 03:16:07;;;;;;;5.33;4.43;;;;;;;;;;4973150;28;20712;-53
2022/06/03 03:18:58;;;;;;;5.33;4.83;;;;;;;;;;4972921;28;20250;-54
2022/06/03 03:21:50;;;;;;;4.90;4.40;;;;;;;;;;4973113;28;20203;-54
2022/06/03 03:24:26;;;;;;;6.63;5.00;;;;;;;;;;4972951;28;20658;-54
2022/06/03 03:27:08;;;;;;;5.47;4.90;;;;;;;;;;4972771;28;20206;-53
2022/06/03 03:29:41;;;;;;;5.60;5.10;;;;;;;;;;4972736;28;20282;-54
2022/06/03 03:32:13;;;;;;;5.13;4.67;;;;;;;;;;4972924;28;20658;-54
2022/06/03 03:34:54;;;;;;;6.70;4.90;;;;;;;;;;4972996;28;20202;-54
2022/06/03 03:37:30;;;;;;;5.50;5.00;;;;;;;;;;4930420;28;20230;-54
2022/06/03 03:40:14;;;;;;;5.03;4.40;;;;;;;;;;4972968;28;20202;-54
2022/06/03 03:43:01;;;;;;;5.57;4.90;;;;;;;;;;4972672;28;20230;-52
2022/06/03 03:45:48;;;;;;;6.23;4.67;;;;;;;;;;4966173;28;20257;-53
2022/06/03 03:48:28;;;;;;;5.30;4.73;;;;;;;;;;4972763;28;20241;-53
2022/06/03 03:51:08;;;;;;;6.17;5.13;;;;;;;;;;4972461;28;20206;-54
2022/06/03 03:53:43;;;;;;;5.00;4.53;;;;;;;;;;4972712;28;20334;-54
2022/06/03 03:56:30;;;;;;;5.57;4.33;;;;;;;;;;4972718;28;20678;-54
2022/06/03 03:59:09;;;;;;;7.60;4.77;;;;;;;;;;4972766;28;20241;-54
2022/06/03 04:01:46;;;;;;;6.20;5.13;;;;;;;;;;4972545;28;20253;-54
2022/06/03 04:04:23;;;;;;;5.27;4.70;;;;;;;;;;4972457;28;20623;-54
2022/06/03 04:07:05;;;;;;;5.57;4.83;;;;;;;;;;4972397;28;20272;-53
2022/06/03 04:09:48;;;;;;;6.73;4.70;;;;;;;;;;4972478;28;20217;-54
2022/06/03 04:12:25;;;;;;;4.67;4.27;;;;;;;;;;4972514;28;20603;-54
2022/06/03 04:15:05;;;;;;;4.97;4.10;;;;;;;;;;4972925;28;20198;-54
2022/06/03 04:17:52;;;;;;;5.60;4.70;;;;;;;;;;4972493;28;20229;-54
2022/06/03 04:20:40;;;;;;;6.30;4.80;;;;;;;;;;4972603;28;20257;-54
2022/06/03 04:23:15;;;;;;;5.60;4.70;;;;;;;;;;4972508;28;20199;-54
2022/06/03 04:25:55;;;;;;;11.10;5.20;;;;;;;;;;4972177;28;20320;-54
2022/06/03 04:28:39;;;;;;;5.60;5.00;;;;;;;;;;4929741;28;20575;-54
2022/06/03 04:31:24;;;;;;;6.03;4.83;;;;;;;;;;4972235;28;20677;-54
2022/06/03 04:34:16;;;;;;;6.53;4.40;;;;;;;;;;4972349;28;20207;-54
2022/06/03 04:37:03;;;;;;;5.43;4.13;;;;;;;;;;4972245;28;20670;-55
2022/06/03 04:39:52;;;;;;;4.20;3.80;;;;;;;;;;4972517;28;20203;-54
2022/06/03 04:42:42;;;;;;;5.50;4.60;;;;;;;;;;4972331;28;20211;-54
2022/06/03 04:45:27;;;;;;;4.70;4.30;;;;;;;;;;4952643;28;20198;-54
2022/06/03 04:48:11;;;;;;;5.77;4.47;;;;;;;;;;4971999;28;20191;-53
2022/06/03 04:51:01;;;;;;;7.50;5.10;;;;;;;;;;4971843;28;20608;-54
2022/06/03 04:53:48;;;;;;;5.60;4.77;;;;;;;;;;4972286;28;20206;-53
2022/06/03 04:56:35;;;;;;;5.87;4.10;;;;;;;;;;4972251;28;20209;-54
2022/06/03 04:59:16;;;;;;;5.63;4.63;;;;;;;;;;4972084;28;20227;-53
2022/06/03 05:02:10;;;;;;;4.70;4.20;;;;;;;;;;4929718;28;20211;-53
2022/06/03 05:05:00;;;;;;;5.43;4.30;;;;;;;;;;4971788;28;20614;-53
2022/06/03 05:07:45;;;;;;;4.47;3.93;;;;;;;;;;4952268;28;20207;-54
2022/06/03 05:10:34;;;;;;;5.17;4.43;;;;;;;;;;4975400;28;20191;-53
2022/06/03 05:13:30;;;;;;;5.73;4.10;;;;;;;;;;4975347;28;20207;-54
2022/06/03 05:16:13;;;;;;;6.23;3.87;;;;;;;;;;4896417;29;20214;-54
2022/06/03 05:18:44;;;;;;;8.67;4.33;;;;;;;;;;4965096;28;20231;-53
2022/06/03 05:21:40;;;;;;;4.50;3.90;;;;;;;;;;4975126;28;20195;-54
2022/06/03 05:24:17;;;;;;;6.03;4.27;;;;;;;;;;4896544;29;20205;-53
2022/06/03 05:27:01;;;;;;;5.47;3.90;;;;;;;;;;4961435;28;20640;-53
2022/06/03 05:29:38;;;;;;;5.30;4.23;;;;;;;;;;4974803;28;20230;-54
2022/06/03 05:32:18;;;;;;;5.93;4.23;;;;;;;;;;4974814;28;20213;-53
2022/06/03 05:34:53;;;;;;;4.53;4.13;;;;;;;;;;4975096;28;20187;-54
2022/06/03 05:37:34;;;;;;;4.83;4.13;;;;;;;;;;4974908;28;20553;-53
2022/06/03 05:40:12;;;;;;;5.67;4.03;;;;;;;;;;4958575;28;20203;-54
2022/06/03 05:42:44;;;;;;;4.53;3.50;;;;;;;;;;4974959;28;20249;-54
2022/06/03 05:45:26;;;;;;;5.10;4.00;;;;;;;;;;4975058;28;20290;-52
2022/06/03 05:47:54;;;;;;;4.50;4.13;;;;;;;;;;4974749;28;20199;-53
2022/06/03 05:50:24;;;;;;;4.43;4.00;;;;;;;;;;4974876;28;20198;-53
2022/06/03 05:53:02;;;;;;;4.33;3.93;;;;;;;;;;4974794;28;20245;-53
2022/06/03 05:55:35;;;;;;;4.10;3.50;;;;;;;;;;4974937;28;20282;-53
2022/06/03 05:58:16;;;;;;;4.13;3.57;;;;;;;;;;4973358;28;20655;-54
2022/06/03 06:00:49;;;;;;;3.63;3.33;;;;;;;;;;4974353;28;20207;-53
2022/06/03 06:03:20;;;;;;;5.80;3.53;;;;;;;;;;4974558;28;20210;-53
2022/06/03 06:05:50;;;;;;;4.83;3.90;;;;;;;;;;4974324;28;20350;-53
2022/06/03 06:08:20;;;;;;;4.20;3.50;;;;;;;;;;4974665;28;20609;-53
2022/06/03 06:10:53;;;;;;;5.40;3.53;;;;;;;;;;4974446;28;20577;-52
2022/06/03 06:13:31;;;;;;;3.63;3.20;;;;;;;;;;4974507;28;20203;-53
2022/06/03 06:16:02;;;;;;;5.23;3.07;;;;;;;;;;4974213;28;20214;-53
2022/06/03 06:18:32;;;;;;;4.13;3.67;;;;;;;;;;4973946;28;20508;-53
2022/06/03 06:21:09;;;;;;;3.60;3.30;;;;;;;;;;4973222;28;20198;-54
2022/06/03 06:23:41;;;;;;;3.67;3.00;;;;;;;;;;4974025;28;20199;-52
2022/06/03 06:26:16;;;;;;;3.40;3.10;;;;;;;;;;4974019;28;20363;-52
2022/06/03 06:29:00;;;;;;;3.83;3.13;;;;;;;;;;4973768;28;20612;-53
2022/06/03 06:31:38;;;;;;;3.70;3.00;;;;;;;;;;4973818;28;20203;-53
2022/06/03 06:34:19;;;;;;;4.20;3.17;;;;;;;;;;4973819;28;20203;-53
2022/06/03 06:36:58;;;;;;;4.60;3.13;;;;;;;;;;4973560;28;20194;-53
2022/06/03 06:39:41;;;;;;;3.97;2.77;;;;;;;;;;4973969;28;20202;-53
2022/06/03 06:42:15;;;;;;;3.00;2.70;;;;;;;;;;4973508;28;20199;-53
2022/06/03 06:44:49;;;;;;;4.00;3.30;;;;;;;;;;4973760;28;20202;-54
2022/06/03 06:47:18;;;;;;;3.77;2.87;;;;;;;;;;4973742;28;20278;-53
2022/06/03 06:49:51;;;;;;;5.30;2.87;;;;;;;;;;4973588;28;20685;-53
2022/06/03 06:52:32;;;;;;;3.10;2.90;;;;;;;;;;4973598;28;20228;-53
2022/06/03 06:55:02;;;;;;;4.40;2.63;;;;;;;;;;4970700;28;20214;-53
2022/06/03 06:57:31;;;;;;;4.00;2.80;;;;;;;;;;4973478;28;20308;-52
2022/06/03 07:00:00;;;;;;;2.63;2.33;;;;;;;;;;4973335;28;20677;-52
2022/06/03 07:02:28;;;;;;;3.23;2.40;;;;;;;;;;4973232;28;20211;-54
2022/06/03 07:04:57;;;;;;;4.57;2.70;;;;;;;;;;4973285;28;20309;-54
2022/06/03 07:07:26;;;;;;;3.07;2.63;;;;;;;;;;4973474;28;20200;-52
2022/06/03 07:09:54;;;;;;;3.03;2.53;;;;;;;;;;4973201;28;20658;-52
2022/06/03 07:12:22;;;;;;;2.97;2.33;;;;;;;;;;4973135;28;20199;-53
2022/06/03 07:15:00;;;;;;;2.63;2.43;;;;;;;;;;4973251;28;20211;-52
2022/06/03 07:20:23;;;;;;;5.17;2.50;;;;;;;;;;4973167;28;20204;-53
2022/06/03 07:22:51;;;;;;;4.23;2.50;;;;;;;;;;4972822;28;20197;-53
2022/06/03 07:25:23;;;;;;;3.17;2.50;;;;;;;;;;4973038;28;20285;-52
2022/06/03 07:27:53;;;;;;;2.90;2.27;;;;;;;;;;4971627;28;20192;-54
2022/06/03 07:30:22;;;;;;;2.43;2.00;;;;;;;;;;4973055;28;20209;-52
2022/06/03 07:32:50;;;;;;;2.00;1.80;;;;;;;;;;4972684;28;20209;-54
2022/06/03 07:35:19;;;;;;;2.00;1.80;;;;;;;;;;4972668;28;20490;-52
2022/06/03 07:37:48;;;;;;;2.53;2.15;;;;;;;;;;4971683;28;20420;-53
2022/06/03 07:40:18;;;;;;;1.90;1.80;;;;;;;;;;4972760;28;20198;-53
2022/06/03 07:42:47;;;;;;;2.03;1.83;;;;;;;;;;4972735;28;20203;-53
2022/06/03 07:45:32;;;;;;;2.53;1.80;;;;;;;;;;4972417;28;20207;-53
2022/06/03 07:47:58;;;;;;;3.33;1.93;;;;;;;;;;4972464;28;20199;-53
2022/06/03 07:50:26;;;;;;;2.80;2.13;;;;;;;;;;4972730;28;20222;-53
2022/06/03 07:52:55;;;;;;;3.00;2.23;;;;;;;;;;4972565;28;20207;-53
2022/06/03 07:55:23;;;;;;;5.60;2.37;;;;;;;;;;4972478;28;20550;-53
2022/06/03 07:57:49;;;;;;;3.23;2.20;;;;;;;;;;4972584;28;20609;-53
2022/06/03 08:00:17;;;;;;;2.70;1.80;;;;;;;;;;4972534;28;20195;-53
2022/06/03 08:02:45;;;;;;;4.83;1.97;;;;;;;;;;4972435;28;20206;-53
2022/06/03 08:05:12;;;;;;;3.53;2.03;;;;;;;;;;4972479;28;20249;-53
2022/06/03 08:13:11;;;;;;;6.10;2.40;;;;;;;;;;4972549;28;20194;-53
2022/06/03 08:15:39;;;;;;;2.47;1.97;;;;;;;;;;4972521;28;20195;-52
2022/06/03 08:18:08;;;;;;;2.30;2.00;;;;;;;;;;4972244;28;20728;-53
2022/06/03 08:20:35;;;;;;;2.27;2.10;;;;;;;;;;4972402;28;20211;-53
2022/06/03 08:23:02;;;;;;;3.53;1.90;;;;;;;;;;4972528;28;20566;-54
2022/06/03 08:25:29;;;;;;;2.50;2.00;;;;;;;;;;4972074;28;20226;-53
2022/06/03 08:27:56;;;;;;;4.80;2.00;;;;;;;;;;4972010;28;20199;-53
2022/06/03 08:30:23;;;;;;;4.83;2.40;;;;;;;;;;4972358;28;20257;-53
2022/06/03 08:32:51;;;;;;;3.17;2.30;;;;;;;;;;4971868;28;20198;-51
2022/06/03 08:35:21;;;;;;;4.37;2.20;;;;;;;;;;4972152;28;20222;-52
2022/06/03 08:37:49;;;;;;;2.20;2.00;;;;;;;;;;4972119;28;20231;-52
2022/06/03 08:40:22;;;;;;;2.20;2.00;;;;;;;;;;4971913;28;20203;-53
2022/06/03 08:42:50;;;;;;;3.60;2.00;;;;;;;;;;4972468;28;20265;-53
2022/06/03 08:45:21;;;;;;;3.07;1.87;;;;;;;;;;4975901;28;20757;-53
2022/06/03 08:47:49;;;;;;;2.80;2.00;;;;;;;;;;4975816;28;20201;-53
2022/06/03 08:50:26;;;;;;;3.03;1.73;;;;;;;;;;4975875;28;20200;-53
2022/06/03 08:52:55;;;;;;;1.83;1.70;;;;;;;;;;4975764;28;20265;-54
2022/06/03 08:55:29;;;;;;;2.70;1.93;;;;;;;;;;4975806;28;20203;-52
2022/06/03 08:57:58;;;;;;;1.97;1.77;;;;;;;;;;4975291;28;20233;-50
2022/06/03 09:00:27;;;;;;;7.20;1.60;;;;;;;;;;4975592;28;20206;-51
2022/06/03 09:02:56;;;;;;;2.83;2.03;;;;;;;;;;4975223;28;20204;-51
2022/06/03 09:05:25;;;;;;;2.23;1.63;;;;;;;;;;4975327;28;20208;-52
2022/06/03 09:07:52;;;;;;;3.90;2.30;;;;;;;;;;4975314;28;20207;-52
2022/06/03 09:10:21;;;;;;;2.13;1.90;;;;;;;;;;4975677;28;20200;-51
2022/06/03 09:12:52;;;;;;;3.00;1.97;;;;;;;;;;4975578;28;20199;-52
2022/06/03 09:15:20;;;;;;;3.87;1.77;;;;;;;;;;4975529;28;20205;-52
2022/06/03 09:17:49;;;;;;;3.00;2.07;;;;;;;;;;4975390;28;20225;-53
2022/06/03 09:20:17;;;;;;;1.93;1.73;;;;;;;;;;4975450;28;20300;-52
2022/06/03 09:22:46;;;;;;;2.13;1.90;;;;;;;;;;4975403;28;20201;-52
2022/06/03 09:25:14;;;;;;;1.97;1.73;;;;;;;;;;4975447;28;20312;-53
2022/06/03 09:27:41;;;;;;;3.37;1.87;;;;;;;;;;4975565;28;20282;-52
2022/06/03 09:30:09;;;;;;;2.40;1.60;;;;;;;;;;4975483;28;20198;-51
2022/06/03 09:32:39;;;;;;;4.60;2.10;;;;;;;;;;4975281;28;20208;-50
2022/06/03 09:35:07;;;;;;;1.77;1.60;;;;;;;;;;4974036;28;20404;-51
2022/06/03 09:37:35;;;;;;;7.23;1.97;;;;;;;;;;4975306;28;20486;-52
2022/06/03 09:40:04;;;;;;;3.63;2.00;;;;;;;;;;4975132;28;20198;-53
2022/06/03 09:42:32;;;;;;;1.87;1.43;;;;;;;;;;4975055;28;20290;-52
2022/06/03 09:45:00;;;;;;;2.10;1.90;;;;;;;;;;4975131;28;20293;-50
2022/06/03 09:47:26;;;;;;;3.33;1.83;;;;;;;;;;4975184;28;20205;-50
2022/06/03 09:49:53;;;;;;;3.30;1.60;;;;;;;;;;4974556;28;20250;-50
2022/06/03 09:52:20;;;;;;;3.97;1.80;;;;;;;;;;4974756;28;20754;-50
2022/06/03 09:54:47;;;;;;;2.23;1.60;;;;;;;;;;4974483;28;20207;-50
2022/06/03 09:57:15;;;;;;;1.97;1.73;;;;;;;;;;4973816;28;20373;-51
2022/06/03 09:59:52;;;;;;;1.80;1.70;;;;;;;;;;4971175;28;20222;-50
2022/06/03 10:02:18;;;;;;;2.53;1.60;;;;;;;;;;4972673;28;20225;-53
2022/06/03 10:04:44;;;;;;;1.77;1.43;;;;;;;;;;4972667;28;20284;-53
2022/06/03 10:07:10;;;;;;;2.63;1.30;;;;;;;;;;4972303;28;20655;-53
2022/06/03 10:18:00;;;;;;;2.17;1.50;;;;;;;;;;4974048;28;20231;-52
2022/06/03 10:20:26;;;;;;;2.23;1.43;;;;;;;;;;4974037;28;20212;-50
2022/06/03 10:22:52;;;;;;;2.37;1.40;;;;;;;;;;4974000;28;20204;-51
2022/06/03 10:25:18;;;;;;;1.90;1.70;;;;;;;;;;4973788;28;20510;-51
2022/06/03 10:27:46;;;;;;;2.03;1.50;;;;;;;;;;4973979;28;20202;-51
2022/06/03 10:30:13;;;;;;;1.50;1.40;;;;;;;;;;4973982;28;20260;-50
2022/06/03 10:32:39;;;;;;;1.70;1.40;;;;;;;;;;4973890;28;20228;-51
2022/06/03 10:35:12;;;;;;;2.20;1.50;;;;;;;;;;4973703;28;20202;-50
2022/06/03 10:37:46;;;;;;;1.90;1.50;;;;;;;;;;4973975;28;20241;-50
2022/06/03 10:40:14;;;;;;;2.47;1.30;;;;;;;;;;4973672;28;20205;-51
2022/06/03 10:42:40;;;;;;;1.80;1.50;;;;;;;;;;4974246;28;20201;-52
2022/06/03 10:45:09;;;;;;;1.97;1.40;;;;;;;;;;4973764;28;20357;-51
2022/06/03 10:47:35;;;;;;;2.90;1.50;;;;;;;;;;4974045;28;20644;-51
2022/06/03 10:50:03;;;;;;;4.07;1.30;;;;;;;;;;4973820;28;20246;-52
2022/06/03 11:03:32;;;;;;;1.50;1.40;;;;;;;;;;4973673;28;20198;-52
2022/06/03 11:06:03;;;;;;;2.33;1.50;;;;;;;;;;4972984;28;20190;-51
2022/06/03 11:08:45;;;;;;;1.40;1.30;;;;;;;;;;4973385;28;20293;-52
2022/06/03 11:11:11;;;;;;;2.70;1.60;;;;;;;;;;4973319;28;20361;-53
2022/06/03 11:13:39;;;;;;;2.80;1.30;;;;;;;;;;4973569;28;20294;-52
2022/06/03 11:16:14;;;;;;;1.70;1.40;;;;;;;;;;4973113;28;20748;-52
2022/06/03 11:18:41;;;;;;;2.87;1.47;;;;;;;;;;4973512;28;20767;-52
2022/06/03 11:21:17;;;;;;;1.57;1.47;;;;;;;;;;4973261;28;20211;-52
2022/06/03 11:23:43;;;;;;;1.50;1.20;;;;;;;;;;4973299;28;20198;-52
2022/06/03 11:26:09;;;;;;;1.40;1.30;;;;;;;;;;4972823;28;20705;-52
2022/06/03 11:28:38;;;;;;;1.10;1.00;;;;;;;;;;4972846;28;20231;-53
2022/06/03 11:31:06;;;;;;;3.60;1.40;;;;;;;;;;4973017;28;20241;-53
2022/06/03 11:33:37;;;;;;;1.30;1.20;;;;;;;;;;4973274;28;20290;-54
2022/06/03 11:36:04;;;;;;;1.40;1.30;;;;;;;;;;4972952;28;20265;-52
2022/06/03 11:38:33;;;;;;;1.30;1.20;;;;;;;;;;4973050;28;20237;-53
2022/06/03 11:41:01;;;;;;;1.43;1.20;;;;;;;;;;4972783;28;20210;-53
2022/06/03 11:43:31;;;;;;;3.80;1.27;;;;;;;;;;4972915;28;20208;-53
2022/06/03 11:45:59;;;;;;;1.67;1.30;;;;;;;;;;4973094;28;20208;-52
2022/06/03 11:48:29;;;;;;;2.03;1.30;;;;;;;;;;4972832;28;20222;-53
2022/06/03 11:50:57;;;;;;;1.77;1.10;;;;;;;;;;4972903;28;20227;-53
2022/06/03 11:53:25;;;;;;;1.50;1.33;;;;;;;;;;4972943;28;20203;-53
2022/06/03 11:55:53;;;;;;;1.53;1.40;;;;;;;;;;4972977;28;20604;-53
2022/06/03 11:58:22;;;;;;;2.27;1.07;;;;;;;;;;4972733;28;20294;-51
2022/06/03 12:00:50;;;;;;;1.33;1.23;;;;;;;;;;4972445;28;20197;-52
2022/06/03 12:03:26;;;;;;;3.27;1.50;;;;;;;;;;4972492;28;20303;-53
2022/06/03 12:05:56;;;;;;;1.57;1.47;;;;;;;;;;4972204;28;20212;-53
2022/06/03 12:08:26;;;;;;;2.10;1.40;;;;;;;;;;4972145;28;20218;-53
2022/06/03 12:10:54;;;;;;;3.50;1.40;;;;;;;;;;4972705;28;20232;-53
2022/06/03 12:13:26;;;;;;;4.27;1.30;;;;;;;;;;4972503;28;20737;-53
2022/06/03 12:16:04;;;;;;;1.53;1.40;;;;;;;;;;4972676;28;20615;-53
2022/06/03 12:18:44;;;;;;;1.37;1.13;;;;;;;;;;4976024;28;20370;-53
2022/06/03 12:21:13;;;;;;;2.93;1.30;;;;;;;;;;4976417;28;20525;-54
2022/06/03 12:23:50;;;;;;;2.20;1.40;;;;;;;;;;4976799;28;20204;-52
2022/06/03 12:26:20;;;;;;;2.60;1.20;;;;;;;;;;4976381;28;20274;-53
2022/06/03 12:28:49;;;;;;;1.37;1.27;;;;;;;;;;4976311;28;20241;-53
2022/06/03 12:31:26;;;;;;;2.37;1.30;;;;;;;;;;4976300;28;20208;-53
2022/06/03 12:33:56;;;;;;;1.60;1.50;;;;;;;;;;4976353;28;20207;-53
2022/06/03 12:36:34;;;;;;;3.87;1.27;;;;;;;;;;4976253;28;20205;-52
2022/06/03 12:39:19;;;;;;;1.93;1.30;;;;;;;;;;4976155;28;20257;-52
2022/06/03 12:41:59;;;;;;;3.00;1.30;;;;;;;;;;4976437;28;20290;-51
2022/06/03 12:44:32;;;;;;;2.10;1.30;;;;;;;;;;4976136;28;20206;-52
2022/06/03 12:47:23;;;;;;;2.57;1.60;;;;;;;;;;4976115;28;20731;-52
2022/06/03 12:49:50;;;;;;;1.97;1.40;;;;;;;;;;4976042;28;20208;-51
2022/06/03 12:52:33;;;;;;;1.87;1.20;;;;;;;;;;4976056;28;20208;-52
2022/06/03 12:55:04;;;;;;;1.67;1.30;;;;;;;;;;4976161;28;20686;-52
2022/06/03 12:57:31;;;;;;;1.70;1.27;;;;;;;;;;4975950;28;20211;-52
2022/06/03 12:59:59;;;;;;;1.40;1.30;;;;;;;;;;4976050;28;20254;-52
2022/06/03 13:02:27;;;;;;;1.53;1.43;;;;;;;;;;4975718;28;20205;-52
2022/06/03 13:05:15;;;;;;;2.10;1.30;;;;;;;;;;4975509;28;20627;-52
2022/06/03 13:08:02;;;;;;;3.47;1.30;;;;;;;;;;4975613;28;20602;-52
2022/06/03 13:10:30;;;;;;;1.97;1.20;;;;;;;;;;4975227;28;20623;-52
2022/06/03 13:13:17;;;;;;;1.50;1.40;;;;;;;;;;4975537;28;20209;-52
2022/06/03 13:15:47;;;;;;;1.30;1.20;;;;;;;;;;4975553;28;20205;-52
2022/06/03 13:18:32;;;;;;;1.23;1.13;;;;;;;;;;4975607;28;20623;-52
2022/06/03 13:21:13;;;;;;;2.37;1.40;;;;;;;;;;4975182;28;20207;-53
2022/06/03 13:23:53;;;;;;;1.70;1.40;;;;;;;;;;4975443;28;20209;-52
2022/06/03 13:26:38;;;;;;;1.30;1.20;;;;;;;;;;4975307;28;20244;-52
2022/06/03 13:29:07;;;;;;;2.10;1.40;;;;;;;;;;4974657;28;20235;-52
2022/06/03 13:31:48;;;;;;;1.63;1.30;;;;;;;;;;4975386;28;20211;-52
2022/06/03 13:34:16;;;;;;;1.47;1.33;;;;;;;;;;4972357;28;20200;-52
2022/06/03 13:36:45;;;;;;;1.40;1.30;;;;;;;;;;4974708;28;20203;-55
2022/06/03 13:39:13;;;;;;;1.40;1.30;;;;;;;;;;4974735;28;20234;-52
2022/06/03 13:44:41;;;;;;;3.67;1.30;;;;;;;;;;4974803;28;20201;-54
2022/06/03 13:47:08;;;;;;;1.50;1.40;;;;;;;;;;4974862;28;20203;-53
2022/06/03 13:49:36;;;;;;;2.07;1.20;;;;;;;;;;4974513;28;20284;-52
2022/06/03 13:52:04;;;;;;;1.50;1.40;;;;;;;;;;4974701;28;20654;-52
2022/06/03 13:54:35;;;;;;;1.50;1.40;;;;;;;;;;4974628;28;20788;-52
2022/06/03 13:57:09;;;;;;;3.57;1.50;;;;;;;;;;4974652;28;20293;-53
2022/06/03 13:59:39;;;;;;;2.40;1.53;;;;;;;;;;4974585;28;20249;-52
2022/06/03 14:02:11;;;;;;;1.40;1.30;;;;;;;;;;4974318;28;20571;-52
2022/06/03 14:04:45;;;;;;;1.87;1.30;;;;;;;;;;4974153;28;20684;-52
2022/06/03 14:07:11;;;;;;;1.30;1.20;;;;;;;;;;4974229;28;20288;-53
2022/06/03 14:09:39;;;;;;;1.53;1.43;;;;;;;;;;4974824;28;20725;-52
2022/06/03 14:12:21;;;;;;;3.73;1.40;;;;;;;;;;4974422;28;20210;-53
2022/06/03 14:14:54;;;;;;;1.97;1.40;;;;;;;;;;4974100;28;20663;-53
2022/06/03 14:17:29;;;;;;;2.97;1.30;;;;;;;;;;4973979;28;20666;-52
2022/06/03 14:19:59;;;;;;;1.50;1.40;;;;;;;;;;4973945;28;20226;-52
2022/06/03 14:22:29;;;;;;;1.43;1.30;;;;;;;;;;4973901;28;20284;-52
2022/06/03 14:25:01;;;;;;;1.03;1.03;;;;;;;;;;4973995;28;20256;-52
2022/06/03 14:27:29;;;;;;;1.20;1.10;;;;;;;;;;4974050;28;20216;-52
2022/06/03 14:29:59;;;;;;;1.30;1.20;;;;;;;;;;4973728;28;20589;-52
2022/06/03 14:32:27;;;;;;;1.70;1.40;;;;;;;;;;4973687;28;20205;-52
2022/06/03 14:34:58;;;;;;;3.40;1.43;;;;;;;;;;4973689;28;20214;-52
2022/06/03 14:37:29;;;;;;;3.20;1.37;;;;;;;;;;4973655;28;20257;-52
2022/06/03 14:40:01;;;;;;;3.63;1.50;;;;;;;;;;4973543;28;20237;-53
2022/06/03 14:42:30;;;;;;;1.57;1.30;;;;;;;;;;4972935;28;20672;-53
2022/06/03 14:44:57;;;;;;;1.40;1.30;;;;;;;;;;4973996;28;20198;-53
2022/06/03 14:47:31;;;;;;;1.47;1.30;;;;;;;;;;4973855;28;20212;-53
2022/06/03 14:50:00;;;;;;;1.57;1.33;;;;;;;;;;4974082;28;20545;-53
2022/06/03 14:52:29;;;;;;;3.20;1.30;;;;;;;;;;4973809;28;20259;-53
2022/06/03 14:54:57;;;;;;;1.40;1.30;;;;;;;;;;4974029;28;20207;-53
2022/06/03 14:57:25;;;;;;;1.60;1.50;;;;;;;;;;4973779;28;20201;-53
2022/06/03 15:00:01;;;;;;;1.40;1.30;;;;;;;;;;4973142;28;20224;-53
2022/06/03 15:02:34;;;;;;;1.50;1.40;;;;;;;;;;4973575;28;20295;-53
2022/06/03 15:05:03;;;;;;;2.23;1.30;;;;;;;;;;4971787;28;20296;-53
2022/06/03 15:07:31;;;;;;;3.33;1.40;;;;;;;;;;4973483;28;20212;-53
2022/06/03 15:09:59;;;;;;;3.63;1.67;;;;;;;;;;4973683;28;20209;-53
2022/06/03 15:12:27;;;;;;;1.83;1.40;;;;;;;;;;4973206;28;20300;-53
2022/06/03 15:14:53;;;;;;;1.97;1.30;;;;;;;;;;4973575;28;20199;-53
2022/06/03 15:17:24;;;;;;;1.50;1.40;;;;;;;;;;4973472;28;20211;-53
2022/06/03 15:19:52;;;;;;;2.67;1.40;;;;;;;;;;4973390;28;20259;-53
2022/06/03 15:22:21;;;;;;;1.50;1.40;;;;;;;;;;4973348;28;20207;-53
2022/06/03 15:24:53;;;;;;;3.80;1.60;;;;;;;;;;4973457;28;20339;-53
2022/06/03 15:27:21;;;;;;;1.80;1.40;;;;;;;;;;4973080;28;20207;-53
2022/06/03 15:29:47;;;;;;;1.60;1.50;;;;;;;;;;4973142;28;20237;-53
2022/06/03 15:32:13;;;;;;;3.80;1.63;;;;;;;;;;4973098;28;20207;-53
2022/06/03 15:34:39;;;;;;;3.07;1.60;;;;;;;;;;4972910;28;20203;-53
2022/06/03 15:37:05;;;;;;;4.60;1.57;;;;;;;;;;4973300;28;20202;-53
2022/06/03 15:39:34;;;;;;;1.50;1.40;;;;;;;;;;4972884;28;20227;-53
2022/06/03 15:42:01;;;;;;;2.90;1.47;;;;;;;;;;4973100;28;20207;-53
2022/06/03 15:44:28;;;;;;;3.77;1.83;;;;;;;;;;4972599;28;20190;-53
2022/06/03 15:46:55;;;;;;;3.30;1.33;;;;;;;;;;4972466;28;20729;-53
2022/06/03 15:49:22;;;;;;;1.93;1.43;;;;;;;;;;4972452;28;20284;-53
2022/06/03 15:51:49;;;;;;;1.60;1.50;;;;;;;;;;4972722;28;20198;-53
2022/06/03 15:54:21;;;;;;;3.13;1.70;;;;;;;;;;4972790;28;20210;-53